createdAt,value
2022-08-05T00:00:12.873Z,74.66
2022-08-05T00:02:43.852Z,74.44
2022-08-05T00:06:02.985Z,72.98
2022-08-05T00:08:35.217Z,73.07
2022-08-05T00:11:48.781Z,73.87
2022-08-05T00:14:36.438Z,74.61
2022-08-05T00:17:03.664Z,74.59
2022-08-05T00:20:01.982Z,74.46
2022-08-05T00:22:29.995Z,74.46
2022-08-05T00:25:17.976Z,74.95
2022-08-05T00:28:05.646Z,74.88
2022-08-05T00:30:32.434Z,75.41
2022-08-05T00:32:59.653Z,74.77
2022-08-05T00:35:33.296Z,74.30
2022-08-05T00:38:00.453Z,74.36
2022-08-05T00:40:29.771Z,74.10
2022-08-05T00:43:17.124Z,73.99
2022-08-05T00:46:18.029Z,74.55
2022-08-05T00:49:20.108Z,74.60
2022-08-05T00:51:50.639Z,75.35
2022-08-05T00:54:18.995Z,75.08
2022-08-05T00:56:51.494Z,75.34
2022-08-05T00:59:18.870Z,75.34
2022-08-05T01:01:48.987Z,75.18
2022-08-05T01:04:16.194Z,74.92
2022-08-05T01:06:48.689Z,75.14
2022-08-05T01:09:36.045Z,75.28
2022-08-05T01:12:20.624Z,75.36
2022-08-05T01:15:35.516Z,74.90
2022-08-05T01:18:37.015Z,73.88
2022-08-05T01:21:38.107Z,74.07
2022-08-05T01:24:25.512Z,73.87
2022-08-05T01:27:22.242Z,72.38
2022-08-05T01:30:04.301Z,72.19
2022-08-05T01:32:33.665Z,72.44
2022-08-05T01:35:02.204Z,72.93
2022-08-05T01:37:36.656Z,72.35
2022-08-05T01:40:12.581Z,73.29
2022-08-05T01:42:41.063Z,73.34
2022-08-05T01:45:09.054Z,72.90
2022-08-05T01:47:39.426Z,72.89
2022-08-05T01:50:34.040Z,71.95
2022-08-05T01:53:57.871Z,72.52
2022-08-05T01:58:10.295Z,74.08
2022-08-05T01:59:26.930Z,74.87
2022-08-05T02:01:56.737Z,74.19
2022-08-05T02:04:26.609Z,74.13
2022-08-05T02:06:53.753Z,74.19
2022-08-05T02:09:41.064Z,74.66
2022-08-05T02:12:21.717Z,73.81
2022-08-05T02:15:07.093Z,74.00
2022-08-05T02:18:31.992Z,74.26
2022-08-05T02:20:58.800Z,74.13
2022-08-05T02:23:41.239Z,72.36
2022-08-05T02:26:30.045Z,71.98
2022-08-05T02:29:21.290Z,72.47
2022-08-05T02:31:52.245Z,74.43
2022-08-05T02:34:24.100Z,74.71
2022-08-05T02:36:57.495Z,73.97
2022-08-05T02:39:25.166Z,73.44
2022-08-05T02:42:00.486Z,72.52
2022-08-05T02:44:28.957Z,72.45
2022-08-05T02:47:00.329Z,74.29
2022-08-05T02:49:35.637Z,74.46
2022-08-05T02:52:05.835Z,74.52
2022-08-05T02:54:53.080Z,73.57
2022-08-05T02:58:10.667Z,73.63
2022-08-05T03:01:14.141Z,75.80
2022-08-05T03:04:17.104Z,74.94
2022-08-05T03:08:01.898Z,75.92
2022-08-05T03:10:39.103Z,73.89
2022-08-05T03:13:17.087Z,74.79
2022-08-05T03:15:45.031Z,73.92
2022-08-05T03:18:12.013Z,73.49
2022-08-05T03:20:48.569Z,73.48
2022-08-05T03:23:15.986Z,75.50
2022-08-05T03:26:04.267Z,75.44
2022-08-05T03:28:31.006Z,74.82
2022-08-05T03:30:59.706Z,75.18
2022-08-05T03:33:42.325Z,74.67
2022-08-05T03:36:14.979Z,75.64
2022-08-05T03:38:42.237Z,75.19
2022-08-05T03:41:19.355Z,74.61
2022-08-05T03:44:09.068Z,74.91
2022-08-05T03:46:37.459Z,74.41
2022-08-05T03:49:04.721Z,74.73
2022-08-05T03:52:36.558Z,75.34
2022-08-05T03:55:54.081Z,77.77
2022-08-05T03:57:42.458Z,78.22
2022-08-05T04:00:44.314Z,79.88
2022-08-05T04:04:09.321Z,81.10
2022-08-05T04:06:51.759Z,83.17
2022-08-05T04:09:53.670Z,82.26
2022-08-05T04:15:00.628Z,84.43
2022-08-05T04:17:55.651Z,82.77
2022-08-05T04:20:18.999Z,84.49
2022-08-05T04:22:47.094Z,85.82
2022-08-05T04:25:15.809Z,87.74
2022-08-05T04:27:43.693Z,89.94
2022-08-05T04:30:23.728Z,91.69
2022-08-05T04:32:53.594Z,89.46
2022-08-05T04:35:20.340Z,89.85
2022-08-05T04:38:01.577Z,91.62
2022-08-05T04:40:32.845Z,86.89
2022-08-05T04:42:59.597Z,85.76
2022-08-05T04:45:48.591Z,80.71
2022-08-05T04:48:18.740Z,74.86
2022-08-05T04:51:03.794Z,74.52
2022-08-05T04:53:58.153Z,68.16
2022-08-05T04:56:43.602Z,63.20
2022-08-05T04:59:21.964Z,60.28
2022-08-05T05:02:36.433Z,65.07
2022-08-05T05:05:35.149Z,61.49
2022-08-05T05:08:56.170Z,57.74
2022-08-05T05:11:52.895Z,55.18
2022-08-05T05:14:27.870Z,53.37
2022-08-05T05:16:59.113Z,50.33
2022-08-05T05:19:27.295Z,51.33
2022-08-05T05:22:23.712Z,49.29
2022-08-05T05:24:58.764Z,46.05
2022-08-05T05:27:44.867Z,45.50
2022-08-05T05:30:35.201Z,49.77
2022-08-05T05:33:23.418Z,55.74
2022-08-05T05:35:50.499Z,54.07
2022-08-05T05:38:22.835Z,55.54
2022-08-05T05:40:54.816Z,48.17
2022-08-05T05:43:56.500Z,46.47
2022-08-05T05:46:15.834Z,41.53
2022-08-05T05:49:06.448Z,41.43
2022-08-05T05:52:05.817Z,42.23
2022-08-05T05:54:50.341Z,40.48
2022-08-05T05:57:19.408Z,38.69
2022-08-05T05:59:47.208Z,40.27
2022-08-05T06:02:37.527Z,39.27
2022-08-05T06:05:38.395Z,39.39
2022-08-05T06:08:39.590Z,39.47
2022-08-05T06:11:26.059Z,36.57
2022-08-05T06:13:54.001Z,39.20
2022-08-05T06:16:30.850Z,38.68
2022-08-05T06:19:00.935Z,38.08
2022-08-05T06:21:35.781Z,41.27
2022-08-05T06:24:06.135Z,44.53
2022-08-05T06:26:35.975Z,43.50
2022-08-05T06:29:03.370Z,44.28
2022-08-05T06:31:32.912Z,42.07
2022-08-05T06:34:06.074Z,40.95
2022-08-05T06:36:37.371Z,39.27
2022-08-05T06:39:21.710Z,40.54
2022-08-05T06:42:10.213Z,47.19
2022-08-05T06:45:20.812Z,45.04
2022-08-05T06:48:36.926Z,43.37
2022-08-05T06:50:49.970Z,42.44
2022-08-05T06:53:22.727Z,39.17
2022-08-05T06:55:56.371Z,38.41
2022-08-05T06:58:35.361Z,38.88
2022-08-05T07:01:05.208Z,38.34
2022-08-05T07:03:52.255Z,37.90
2022-08-05T07:06:53.266Z,36.20
2022-08-05T07:09:55.378Z,35.32
2022-08-05T07:12:57.302Z,34.25
2022-08-05T07:16:01.614Z,38.28
2022-08-05T07:18:30.817Z,32.98
2022-08-05T07:20:57.825Z,32.83
2022-08-05T07:23:26.401Z,35.78
2022-08-05T07:25:57.077Z,35.83
2022-08-05T07:28:25.293Z,38.28
2022-08-05T07:31:13.265Z,44.87
2022-08-05T07:33:55.679Z,39.65
2022-08-05T07:36:27.440Z,41.54
2022-08-05T07:38:54.999Z,37.97
2022-08-05T07:42:12.993Z,35.31
2022-08-05T07:44:43.185Z,37.03
2022-08-05T07:47:13.432Z,38.84
2022-08-05T07:49:43.553Z,41.99
2022-08-05T07:52:21.440Z,39.53
2022-08-05T07:54:50.749Z,36.94
2022-08-05T07:57:51.269Z,39.53
2022-08-05T08:00:11.494Z,36.27
2022-08-05T08:03:13.847Z,35.85
2022-08-05T08:05:55.785Z,37.13
2022-08-05T08:08:43.391Z,38.35
2022-08-05T08:11:48.183Z,36.97
2022-08-05T08:14:34.819Z,36.61
2022-08-05T08:17:02.557Z,36.62
2022-08-05T08:20:21.204Z,39.17
2022-08-05T08:22:16.599Z,38.10
2022-08-05T08:24:51.736Z,39.63
2022-08-05T08:27:18.895Z,42.41
2022-08-05T08:30:05.156Z,40.98
2022-08-05T08:32:33.987Z,39.84
2022-08-05T08:35:07.465Z,40.63
2022-08-05T08:38:01.298Z,38.87
2022-08-05T08:40:45.704Z,40.50
2022-08-05T08:45:25.130Z,42.23
2022-08-05T08:47:01.307Z,38.75
2022-08-05T08:50:22.655Z,37.58
2022-08-05T08:52:33.547Z,36.29
2022-08-05T08:55:00.613Z,39.51
2022-08-05T08:57:42.065Z,42.05
2022-08-05T09:00:15.749Z,37.83
2022-08-05T09:03:06.357Z,37.35
2022-08-05T09:06:08.901Z,36.91
2022-08-05T09:09:13.353Z,36.68
2022-08-05T09:12:00.173Z,38.81
2022-08-05T09:14:58.582Z,38.34
2022-08-05T09:17:45.717Z,39.11
2022-08-05T09:20:51.400Z,39.32
2022-08-05T09:23:37.469Z,35.89
2022-08-05T09:26:20.679Z,34.64
2022-08-05T09:28:49.400Z,36.93
2022-08-05T09:31:44.049Z,37.28
2022-08-05T09:34:31.040Z,36.11
2022-08-05T09:36:59.963Z,36.64
2022-08-05T09:39:39.453Z,35.32
2022-08-05T09:42:17.393Z,37.10
2022-08-05T09:44:52.537Z,38.45
2022-08-05T09:47:24.151Z,37.47
2022-08-05T09:49:57.067Z,36.11
2022-08-05T09:52:33.057Z,39.16
2022-08-05T09:55:55.508Z,34.29
2022-08-05T09:57:48.862Z,36.85
2022-08-05T10:00:24.713Z,37.62
2022-08-05T10:03:04.437Z,36.50
2022-08-05T10:05:46.177Z,34.62
2022-08-05T10:08:38.540Z,34.99
2022-08-05T10:11:23.000Z,32.56
2022-08-05T10:13:49.989Z,33.44
2022-08-05T10:16:41.875Z,33.58
2022-08-05T10:19:23.535Z,34.18
2022-08-05T10:21:59.121Z,32.93
2022-08-05T10:24:27.095Z,32.71
2022-08-05T10:27:00.449Z,32.31
2022-08-05T10:30:06.559Z,30.82
2022-08-05T10:33:05.142Z,30.42
2022-08-05T10:35:59.702Z,29.92
2022-08-05T10:38:28.539Z,29.26
2022-08-05T10:41:28.073Z,29.12
2022-08-05T10:44:17.175Z,29.22
2022-08-05T10:46:50.702Z,29.48
2022-08-05T10:49:26.908Z,28.73
2022-08-05T10:52:13.415Z,29.31
2022-08-05T10:55:05.272Z,31.21
2022-08-05T10:57:34.216Z,31.71
2022-08-05T11:00:12.193Z,33.30
2022-08-05T11:03:25.979Z,31.63
2022-08-05T11:06:14.968Z,30.99
2022-08-05T11:09:31.896Z,31.57
2022-08-05T11:12:33.348Z,32.36
2022-08-05T11:15:20.001Z,31.05
2022-08-05T11:18:11.615Z,31.53
2022-08-05T11:20:52.581Z,32.11
2022-08-05T11:24:05.093Z,30.35
2022-08-05T11:26:43.403Z,32.93
2022-08-05T11:29:53.423Z,33.59
2022-08-05T11:32:54.432Z,32.96
2022-08-05T11:36:02.878Z,32.14
2022-08-05T11:38:45.708Z,32.31
2022-08-05T11:41:57.989Z,33.08
2022-08-05T11:44:12.680Z,32.46
2022-08-05T11:47:11.797Z,32.20
2022-08-05T11:49:43.235Z,31.77
2022-08-05T11:52:23.508Z,31.63
2022-08-05T11:54:57.478Z,32.08
2022-08-05T11:57:29.229Z,31.69
2022-08-05T11:59:58.100Z,32.88
2022-08-05T12:02:46.554Z,31.58
2022-08-05T12:05:47.512Z,31.93
2022-08-05T12:08:53.561Z,31.67
2022-08-05T12:11:40.446Z,31.79
2022-08-05T12:14:10.242Z,34.47
2022-08-05T12:16:39.640Z,34.21
2022-08-05T12:20:25.582Z,32.05
2022-08-05T12:22:30.017Z,31.23
2022-08-05T12:24:58.975Z,31.19
2022-08-05T12:27:27.119Z,32.12
2022-08-05T12:30:05.128Z,32.08
2022-08-05T12:32:33.178Z,31.96
2022-08-05T12:35:00.188Z,31.41
2022-08-05T12:37:31.751Z,32.21
2022-08-05T12:40:03.738Z,32.48
2022-08-05T12:42:37.587Z,31.86
2022-08-05T12:45:08.873Z,32.30
2022-08-05T12:47:37.483Z,35.27
2022-08-05T12:50:15.958Z,30.61
2022-08-05T12:53:09.582Z,31.33
2022-08-05T12:56:35.395Z,32.04
2022-08-05T12:59:20.745Z,31.57
2022-08-05T13:02:16.664Z,30.35
2022-08-05T13:05:19.514Z,31.13
2022-08-05T13:08:21.528Z,30.56
2022-08-05T13:12:01.741Z,30.86
2022-08-05T13:14:19.812Z,31.24
2022-08-05T13:17:08.518Z,31.18
2022-08-05T13:20:06.974Z,31.08
2022-08-05T13:22:39.713Z,30.10
2022-08-05T13:25:19.322Z,29.88
2022-08-05T13:27:50.382Z,29.27
2022-08-05T13:30:39.077Z,31.54
2022-08-05T13:34:21.355Z,31.93
2022-08-05T13:36:09.231Z,30.82
2022-08-05T13:38:41.943Z,30.87
2022-08-05T13:41:10.186Z,30.92
2022-08-05T13:43:44.529Z,31.23
2022-08-05T13:46:51.042Z,32.06
2022-08-05T13:49:09.808Z,31.81
2022-08-05T13:51:41.252Z,31.22
2022-08-05T13:54:12.003Z,31.70
2022-08-05T13:56:50.875Z,31.97
2022-08-05T13:59:24.207Z,31.24
2022-08-05T14:02:19.749Z,30.31
2022-08-05T14:05:29.742Z,30.48
2022-08-05T14:08:42.552Z,29.88
2022-08-05T14:12:04.267Z,30.52
2022-08-05T14:14:49.898Z,29.93
2022-08-05T14:17:18.394Z,29.63
2022-08-05T14:19:55.187Z,30.11
2022-08-05T14:22:23.917Z,29.95
2022-08-05T14:24:57.394Z,29.51
2022-08-05T14:27:24.234Z,30.17
2022-08-05T14:29:55.281Z,27.96
2022-08-05T14:32:27.196Z,28.53
2022-08-05T14:34:56.889Z,28.60
2022-08-05T14:37:45.582Z,28.39
2022-08-05T14:40:13.960Z,28.70
2022-08-05T14:42:41.418Z,28.61
2022-08-05T14:45:10.390Z,29.18
2022-08-05T14:48:02.993Z,28.78
2022-08-05T14:50:25.325Z,28.94
2022-08-05T14:52:56.916Z,29.06
2022-08-05T14:55:52.094Z,28.44
2022-08-05T14:58:33.161Z,29.07
2022-08-05T15:01:00.496Z,28.35
2022-08-05T15:03:48.615Z,28.84
2022-08-05T15:06:49.867Z,28.13
2022-08-05T15:09:54.095Z,27.49
2022-08-05T15:12:51.613Z,26.54
2022-08-05T15:15:54.589Z,27.70
2022-08-05T15:18:08.808Z,27.83
2022-08-05T15:20:35.919Z,28.02
2022-08-05T15:23:04.018Z,27.78
2022-08-05T15:25:50.878Z,28.06
2022-08-05T15:28:38.602Z,28.33
2022-08-05T15:31:23.559Z,27.99
2022-08-05T15:34:18.458Z,28.38
2022-08-05T15:36:48.133Z,28.33
2022-08-05T15:41:01.279Z,27.10
2022-08-05T15:42:01.890Z,27.97
2022-08-05T15:44:48.588Z,27.98
2022-08-05T15:47:16.816Z,28.58
2022-08-05T15:49:58.771Z,28.88
2022-08-05T15:52:51.781Z,28.99
2022-08-05T15:55:16.094Z,28.69
2022-08-05T15:57:43.326Z,29.40
2022-08-05T16:00:12.459Z,29.62
2022-08-05T16:02:56.673Z,29.97
2022-08-05T16:05:59.669Z,30.02
2022-08-05T16:09:00.641Z,30.46
2022-08-05T16:12:00.392Z,30.66
2022-08-05T16:14:27.161Z,29.32
2022-08-05T16:17:14.643Z,29.42
2022-08-05T16:20:04.391Z,29.42
2022-08-05T16:22:38.018Z,28.67
2022-08-05T16:25:09.835Z,29.18
2022-08-05T16:28:00.252Z,28.06
2022-08-05T16:30:28.788Z,29.31
2022-08-05T16:32:56.472Z,29.28
2022-08-05T16:35:28.018Z,29.46
2022-08-05T16:38:15.337Z,29.36
2022-08-05T16:40:52.146Z,29.38
2022-08-05T16:43:23.895Z,28.69
2022-08-05T16:46:06.331Z,29.14
2022-08-05T16:48:37.871Z,29.03
2022-08-05T16:51:30.845Z,29.14
2022-08-05T16:54:28.997Z,30.69
2022-08-05T16:57:53.361Z,30.53
2022-08-05T17:00:54.710Z,31.47
2022-08-05T17:03:25.043Z,31.60
2022-08-05T17:05:59.346Z,32.34
2022-08-05T17:08:52.676Z,32.83
2022-08-05T17:11:59.640Z,33.10
2022-08-05T17:14:40.278Z,33.01
2022-08-05T17:17:29.576Z,33.14
2022-08-05T17:20:23.214Z,34.02
2022-08-05T17:22:55.663Z,35.22
2022-08-05T17:25:33.922Z,35.95
2022-08-05T17:28:28.837Z,37.94
2022-08-05T17:31:41.363Z,40.04
2022-08-05T17:34:32.054Z,43.79
2022-08-05T17:37:00.090Z,44.18
2022-08-05T17:39:34.449Z,44.76
2022-08-05T17:42:18.935Z,46.21
2022-08-05T17:45:17.939Z,46.58
2022-08-05T17:48:22.730Z,47.75
2022-08-05T17:51:09.098Z,45.23
2022-08-05T17:53:36.240Z,45.63
2022-08-05T17:56:04.648Z,43.82
2022-08-05T17:58:32.453Z,49.64
2022-08-05T18:00:59.704Z,49.76
2022-08-05T18:03:59.498Z,47.28
2022-08-05T18:06:15.513Z,46.04
2022-08-05T18:09:03.609Z,48.18
2022-08-05T18:11:44.153Z,48.71
2022-08-05T18:14:13.404Z,45.93
2022-08-05T18:17:00.729Z,44.90
2022-08-05T18:20:01.735Z,46.16
2022-08-05T18:23:11.926Z,48.66
2022-08-05T18:26:00.705Z,46.86
2022-08-05T18:28:29.142Z,48.25
2022-08-05T18:30:58.052Z,48.93
2022-08-05T18:33:24.895Z,48.61
2022-08-05T18:36:15.326Z,49.64
2022-08-05T18:38:56.369Z,49.44
2022-08-05T18:41:57.396Z,48.98
2022-08-05T18:44:11.387Z,49.58
2022-08-05T18:46:41.080Z,48.94
2022-08-05T18:49:30.678Z,49.50
2022-08-05T18:52:36.832Z,51.33
2022-08-05T18:55:17.168Z,51.04
2022-08-05T18:57:53.506Z,53.64
2022-08-05T19:00:27.051Z,53.75
2022-08-05T19:02:56.601Z,53.15
2022-08-05T19:06:05.683Z,53.59
2022-08-05T19:08:31.790Z,56.04
2022-08-05T19:11:37.054Z,55.51
2022-08-05T19:15:00.734Z,56.80
2022-08-05T19:18:09.830Z,57.94
2022-08-05T19:21:00.814Z,59.49
2022-08-05T19:24:06.840Z,61.14
2022-08-05T19:27:09.804Z,61.94
2022-08-05T19:30:04.785Z,62.91
2022-08-05T19:33:08.851Z,60.85
2022-08-05T19:35:57.586Z,60.70
2022-08-05T19:38:26.678Z,61.53
2022-08-05T19:40:53.768Z,60.67
2022-08-05T19:44:04.608Z,60.28
2022-08-05T19:46:16.934Z,62.48
2022-08-05T19:48:55.110Z,63.24
2022-08-05T19:52:09.326Z,63.49
2022-08-05T19:54:15.568Z,66.14
2022-08-05T19:56:49.814Z,67.09
2022-08-05T19:59:53.731Z,66.64
2022-08-05T20:02:39.799Z,67.05
2022-08-05T20:05:24.484Z,68.44
2022-08-05T20:08:14.922Z,68.77
2022-08-05T20:11:17.930Z,69.89
2022-08-05T20:14:26.791Z,69.58
2022-08-05T20:17:27.807Z,68.81
2022-08-05T20:20:32.809Z,69.77
2022-08-05T20:23:40.079Z,68.88
2022-08-05T20:26:17.867Z,70.28
2022-08-05T20:28:49.771Z,69.92
2022-08-05T20:31:17.350Z,70.88
2022-08-05T20:33:48.357Z,69.91
2022-08-05T20:36:18.103Z,67.54
2022-08-05T20:38:54.554Z,70.09
2022-08-05T20:41:27.560Z,69.29
2022-08-05T20:44:19.300Z,66.60
2022-08-05T20:46:58.166Z,66.31
2022-08-05T20:49:25.958Z,67.64
2022-08-05T20:51:54.085Z,65.57
2022-08-05T20:54:21.713Z,65.97
2022-08-05T20:56:48.848Z,66.48
2022-08-05T20:59:26.589Z,64.74
2022-08-05T21:01:57.247Z,65.38
2022-08-05T21:04:44.886Z,65.17
2022-08-05T21:07:51.952Z,64.75
2022-08-05T21:10:58.525Z,67.26
2022-08-05T21:13:55.904Z,65.31
2022-08-05T21:16:43.810Z,64.41
2022-08-05T21:19:24.392Z,64.72
2022-08-05T21:21:55.199Z,64.85
2022-08-05T21:24:22.028Z,63.68
2022-08-05T21:26:56.115Z,62.92
2022-08-05T21:29:48.516Z,62.36
2022-08-05T21:32:51.861Z,62.05
2022-08-05T21:35:55.809Z,64.23
2022-08-05T21:38:19.860Z,61.81
2022-08-05T21:40:46.891Z,61.38
2022-08-05T21:43:23.998Z,61.13
2022-08-05T21:45:56.964Z,62.12
2022-08-05T21:48:27.265Z,60.56
2022-08-05T21:50:54.644Z,60.36
2022-08-05T21:53:27.268Z,59.55
2022-08-05T21:56:04.794Z,59.51
2022-08-05T21:58:59.897Z,58.16
2022-08-05T22:01:48.313Z,59.49
2022-08-05T22:04:16.999Z,58.97
2022-08-05T22:06:43.956Z,58.93
2022-08-05T22:09:46.163Z,59.52
2022-08-05T22:12:50.677Z,58.50
2022-08-05T22:16:02.600Z,58.92
2022-08-05T22:18:58.663Z,58.99
2022-08-05T22:21:25.804Z,58.42
2022-08-05T22:24:13.360Z,59.45
2022-08-05T22:27:17.736Z,60.04
2022-08-05T22:29:44.563Z,59.31
2022-08-05T22:32:12.707Z,58.85
2022-08-05T22:34:44.451Z,58.69
2022-08-05T22:37:12.675Z,61.54
2022-08-05T22:39:39.508Z,62.72
2022-08-05T22:42:12.428Z,63.00
2022-08-05T22:44:47.076Z,62.34
2022-08-05T22:47:29.148Z,62.70
2022-08-05T22:50:26.623Z,63.00
2022-08-05T22:53:10.284Z,63.44
2022-08-05T22:55:57.062Z,63.58
2022-08-05T22:58:28.244Z,64.65
2022-08-05T23:00:56.960Z,65.89
2022-08-05T23:03:58.980Z,67.40
2022-08-05T23:06:30.937Z,68.89
2022-08-05T23:09:56.979Z,69.31
2022-08-05T23:12:54.557Z,68.96
2022-08-05T23:15:56.040Z,69.70
2022-08-05T23:18:36.353Z,70.71
2022-08-05T23:21:05.551Z,71.19
2022-08-05T23:23:37.059Z,70.31
2022-08-05T23:26:07.600Z,70.95
2022-08-05T23:28:34.500Z,70.56
2022-08-05T23:31:16.281Z,70.76
2022-08-05T23:34:06.167Z,72.49
2022-08-05T23:36:39.720Z,72.60
2022-08-05T23:39:32.560Z,74.13
2022-08-05T23:42:29.908Z,75.21
2022-08-05T23:44:57.133Z,75.04
2022-08-05T23:47:24.921Z,75.51
2022-08-05T23:49:55.566Z,75.29
2022-08-05T23:52:26.651Z,75.10
2022-08-05T23:54:58.244Z,74.23
2022-08-05T23:57:28.239Z,73.56
